createdAt,value
2018-11-20T00:02:00.155Z,79.00
2018-11-20T00:04:54.634Z,79.00
2018-11-20T00:07:42.721Z,78.90
2018-11-20T00:10:37.900Z,78.90
2018-11-20T00:13:19.383Z,79.10
2018-11-20T00:16:06.841Z,79.00
2018-11-20T00:21:49.488Z,79.10
2018-11-20T00:24:40.478Z,79.00
2018-11-20T00:27:40.788Z,79.00
2018-11-20T00:30:44.272Z,78.90
2018-11-20T00:33:22.116Z,79.00
2018-11-20T00:36:09.785Z,78.90
2018-11-20T00:39:01.176Z,79.10
2018-11-20T00:41:36.597Z,79.10
2018-11-20T00:44:42.958Z,79.20
2018-11-20T00:47:26.490Z,79.00
2018-11-20T00:50:24.121Z,78.90
2018-11-20T00:53:24.609Z,78.90
2018-11-20T00:56:50.559Z,79.10
2018-11-20T00:59:37.750Z,79.30
2018-11-20T01:02:29.168Z,79.30
2018-11-20T01:05:20.541Z,79.10
2018-11-20T01:08:08.672Z,79.10
2018-11-20T01:10:55.483Z,79.30
2018-11-20T01:13:42.538Z,79.30
2018-11-20T01:16:26.767Z,79.20
2018-11-20T01:19:29.971Z,79.00
2018-11-20T01:22:16.814Z,78.70
2018-11-20T01:25:13.884Z,78.50
2018-11-20T01:27:55.375Z,79.00
2018-11-20T01:30:55.911Z,78.30
2018-11-20T01:33:42.834Z,78.20
2018-11-20T01:36:37.247Z,78.40
2018-11-20T01:39:30.715Z,78.60
2018-11-20T01:42:17.782Z,78.80
2018-11-20T01:45:04.721Z,78.80
2018-11-20T01:47:46.133Z,78.90
2018-11-20T01:50:33.284Z,79.00
2018-11-20T01:53:36.758Z,78.80
2018-11-20T01:56:30.913Z,78.80
2018-11-20T01:59:18.928Z,78.70
2018-11-20T02:02:05.644Z,78.90
2018-11-20T02:04:52.252Z,79.00
2018-11-20T02:07:40.660Z,78.90
2018-11-20T02:10:20.241Z,79.10
2018-11-20T02:14:00.581Z,78.90
2018-11-20T02:16:56.946Z,78.90
2018-11-20T02:19:45.488Z,79.00
2018-11-20T02:22:28.371Z,79.00
2018-11-20T02:25:14.829Z,78.90
2018-11-20T02:28:05.855Z,78.80
2018-11-20T02:30:52.486Z,78.70
2018-11-20T02:33:58.893Z,78.70
2018-11-20T02:36:47.590Z,78.70
2018-11-20T02:39:42.080Z,78.80
2018-11-20T02:42:33.524Z,78.70
2018-11-20T02:45:20.737Z,78.80
2018-11-20T02:48:09.239Z,79.00
2018-11-20T02:50:57.618Z,79.20
2018-11-20T02:53:57.653Z,79.30
2018-11-20T02:56:44.636Z,79.30
2018-11-20T02:59:31.712Z,79.50
2018-11-20T03:02:25.701Z,79.50
2018-11-20T03:05:07.683Z,79.40
2018-11-20T03:07:54.483Z,79.20
2018-11-20T03:10:43.698Z,79.10
2018-11-20T03:13:32.139Z,79.20
2018-11-20T03:16:19.507Z,79.40
2018-11-20T03:19:17.006Z,79.20
2018-11-20T03:22:11.450Z,79.40
2018-11-20T03:24:54.154Z,79.50
2018-11-20T03:27:40.933Z,79.50
2018-11-20T03:31:13.301Z,79.70
2018-11-20T03:33:57.868Z,79.70
2018-11-20T03:36:48.931Z,79.70
2018-11-20T03:39:35.486Z,79.80
2018-11-20T03:42:23.883Z,79.80
2018-11-20T03:45:21.287Z,79.70
2018-11-20T03:48:08.026Z,79.90
2018-11-20T03:51:02.611Z,79.90
2018-11-20T03:54:02.740Z,80.00
2018-11-20T03:56:59.966Z,80.00
2018-11-20T03:59:48.247Z,79.90
2018-11-20T04:02:36.218Z,80.00
2018-11-20T04:05:23.452Z,79.80
2018-11-20T04:08:23.811Z,79.70
2018-11-20T04:11:21.060Z,79.70
2018-11-20T04:14:18.562Z,79.70
2018-11-20T04:17:05.268Z,79.70
2018-11-20T04:19:59.620Z,80.00
2018-11-20T04:22:40.012Z,80.00
2018-11-20T04:25:29.602Z,80.00
2018-11-20T04:28:16.225Z,80.00
2018-11-20T04:31:39.436Z,79.90
2018-11-20T04:34:33.721Z,79.80
2018-11-20T04:37:37.983Z,79.90
2018-11-20T04:40:22.965Z,80.00
2018-11-20T04:43:11.425Z,79.90
2018-11-20T04:46:14.910Z,79.90
2018-11-20T04:49:02.057Z,79.70
2018-11-20T04:51:48.750Z,79.40
2018-11-20T04:54:42.804Z,79.20
2018-11-20T04:57:43.170Z,79.10
2018-11-20T05:00:49.332Z,79.00
2018-11-20T05:03:36.225Z,79.00
2018-11-20T05:06:23.682Z,79.10
2018-11-20T05:09:21.012Z,79.30
2018-11-20T05:12:07.946Z,79.40
2018-11-20T05:14:54.715Z,79.30
2018-11-20T05:17:32.484Z,79.10
2018-11-20T05:20:23.732Z,79.20
2018-11-20T05:23:10.303Z,79.20
2018-11-20T05:26:04.789Z,79.30
2018-11-20T05:29:05.116Z,79.20
2018-11-20T05:31:50.647Z,79.20
2018-11-20T05:34:37.521Z,79.20
2018-11-20T05:37:24.814Z,79.40
2018-11-20T05:40:11.279Z,79.40
2018-11-20T05:42:58.157Z,79.60
2018-11-20T05:45:44.717Z,79.80
2018-11-20T05:48:35.694Z,79.80
2018-11-20T05:51:33.196Z,79.80
2018-11-20T05:54:27.392Z,79.90
2018-11-20T05:57:14.329Z,80.00
2018-11-20T06:00:01.453Z,80.00
2018-11-20T06:02:49.250Z,80.00
2018-11-20T06:05:46.800Z,80.50
2018-11-20T06:08:35.131Z,79.90
2018-11-20T06:11:22.142Z,79.70
2018-11-20T06:14:13.537Z,79.60
2018-11-20T06:17:00.268Z,79.60
2018-11-20T06:19:47.287Z,79.40
2018-11-20T06:22:34.060Z,79.40
2018-11-20T06:25:23.387Z,79.30
2018-11-20T06:28:10.364Z,79.20
2018-11-20T06:31:02.148Z,79.20
2018-11-20T06:33:41.195Z,79.10
2018-11-20T06:36:32.083Z,79.00
2018-11-20T06:39:26.637Z,79.10
2018-11-20T06:42:13.386Z,79.10
2018-11-20T06:45:10.412Z,79.10
2018-11-20T06:48:10.483Z,79.10
2018-11-20T06:50:58.978Z,79.10
2018-11-20T06:53:37.023Z,79.30
2018-11-20T06:56:28.366Z,79.20
2018-11-20T06:59:15.280Z,79.10
2018-11-20T07:02:02.116Z,78.70
2018-11-20T07:05:02.380Z,78.60
2018-11-20T07:08:09.288Z,78.50
2018-11-20T07:11:06.329Z,78.50
2018-11-20T07:14:09.848Z,78.60
2018-11-20T07:16:58.358Z,78.50
2018-11-20T07:19:52.240Z,78.50
2018-11-20T07:22:44.852Z,78.40
2018-11-20T07:25:31.515Z,78.40
2018-11-20T07:28:25.416Z,78.20
2018-11-20T07:31:24.140Z,78.00
2018-11-20T07:34:06.524Z,77.70
2018-11-20T07:37:10.296Z,77.30
2018-11-20T07:39:55.828Z,77.10
2018-11-20T07:42:47.516Z,77.10
2018-11-20T07:45:35.848Z,77.40
2018-11-20T07:48:36.228Z,77.50
2018-11-20T07:51:22.201Z,77.20
2018-11-20T07:54:16.443Z,76.90
2018-11-20T07:57:03.291Z,76.50
2018-11-20T07:59:57.504Z,76.20
2018-11-20T08:02:57.922Z,76.20
2018-11-20T08:06:05.241Z,76.10
2018-11-20T08:08:57.177Z,76.00
2018-11-20T08:11:44.219Z,76.10
2018-11-20T08:14:38.597Z,76.10
2018-11-20T08:17:14.623Z,76.10
2018-11-20T08:19:57.766Z,76.20
2018-11-20T08:22:55.232Z,76.40
2018-11-20T08:25:55.233Z,76.40
2018-11-20T08:28:49.217Z,76.30
2018-11-20T08:31:37.560Z,76.20
2018-11-20T08:34:34.728Z,76.10
2018-11-20T08:37:21.743Z,76.00
2018-11-20T08:40:08.816Z,75.60
2018-11-20T08:43:01.566Z,75.00
2018-11-20T08:45:57.613Z,74.40
2018-11-20T08:48:44.680Z,74.10
2018-11-20T08:51:35.670Z,74.10
2018-11-20T08:54:14.629Z,74.20
2018-11-20T08:57:05.684Z,74.10
2018-11-20T08:59:44.348Z,74.10
2018-11-20T09:02:35.712Z,74.00
2018-11-20T09:05:22.318Z,73.90
2018-11-20T09:08:10.732Z,74.30
2018-11-20T09:10:56.681Z,74.40
2018-11-20T09:14:00.234Z,74.40
2018-11-20T09:16:51.407Z,74.10
2018-11-20T09:19:42.778Z,73.90
2018-11-20T09:22:25.792Z,73.90
2018-11-20T09:25:31.961Z,74.00
2018-11-20T09:28:20.573Z,73.80
2018-11-20T09:31:08.984Z,73.60
2018-11-20T09:34:00.407Z,73.20
2018-11-20T09:36:57.472Z,72.80
2018-11-20T09:39:47.110Z,72.50
2018-11-20T09:42:38.554Z,72.60
2018-11-20T09:45:37.156Z,72.60
2018-11-20T09:48:26.586Z,72.50
2018-11-20T09:51:15.069Z,72.30
2018-11-20T09:54:02.687Z,72.10
2018-11-20T09:56:49.636Z,72.20
2018-11-20T09:59:50.174Z,72.00
2018-11-20T10:02:33.245Z,72.50
2018-11-20T10:05:19.516Z,72.50
2018-11-20T10:08:10.828Z,72.30
2018-11-20T10:10:54.102Z,72.00
2018-11-20T10:13:40.869Z,72.10
2018-11-20T10:16:47.275Z,72.00
2018-11-20T10:19:33.967Z,72.00
2018-11-20T10:22:28.010Z,71.90
2018-11-20T10:25:19.159Z,71.80
2018-11-20T10:28:05.918Z,72.60
2018-11-20T10:30:56.946Z,72.60
2018-11-20T10:34:00.184Z,72.80
2018-11-20T10:36:42.843Z,72.90
2018-11-20T10:39:37.316Z,72.30
2018-11-20T10:42:34.870Z,72.10
2018-11-20T10:45:19.836Z,71.90
2018-11-20T10:48:06.987Z,71.40
2018-11-20T10:50:53.760Z,71.00
2018-11-20T10:53:31.123Z,71.00
2018-11-20T10:56:18.145Z,71.00
2018-11-20T10:59:00.156Z,70.90
2018-11-20T11:01:47.146Z,70.70
2018-11-20T11:04:33.908Z,70.70
2018-11-20T11:07:20.949Z,70.80
2018-11-20T11:09:58.307Z,71.10
2018-11-20T11:12:49.606Z,71.10
2018-11-20T11:15:36.245Z,70.80
2018-11-20T11:18:24.672Z,70.70
2018-11-20T11:21:15.809Z,70.70
2018-11-20T11:24:10.032Z,70.70
2018-11-20T11:27:04.484Z,70.60
2018-11-20T11:29:55.493Z,69.70
2018-11-20T11:32:49.704Z,69.10
2018-11-20T11:35:46.947Z,68.60
2018-11-20T11:38:36.940Z,68.00
2018-11-20T11:41:23.674Z,67.70
2018-11-20T11:44:10.584Z,68.00
2018-11-20T11:46:57.435Z,68.30
2018-11-20T11:49:51.324Z,68.60
2018-11-20T11:52:38.142Z,69.10
2018-11-20T11:55:21.543Z,69.50
2018-11-20T11:58:07.651Z,69.70
2018-11-20T12:01:02.058Z,70.10
2018-11-20T12:03:42.479Z,70.40
2018-11-20T12:06:42.645Z,70.80
2018-11-20T12:09:29.233Z,70.70
2018-11-20T12:12:20.448Z,70.80
2018-11-20T12:15:10.106Z,70.80
2018-11-20T12:17:59.010Z,70.90
2018-11-20T12:20:47.388Z,70.60
2018-11-20T12:23:44.667Z,70.50
2018-11-20T12:26:35.689Z,70.50
2018-11-20T12:29:42.114Z,70.60
2018-11-20T12:32:39.473Z,70.80
2018-11-20T12:35:33.199Z,70.90
2018-11-20T12:38:23.304Z,70.90
2018-11-20T12:41:10.241Z,70.90
2018-11-20T12:44:06.012Z,70.50
2018-11-20T12:46:51.193Z,70.20
2018-11-20T12:49:42.491Z,70.20
2018-11-20T12:52:28.855Z,69.80
2018-11-20T12:55:15.581Z,69.60
2018-11-20T12:58:07.442Z,69.30
2018-11-20T13:01:01.879Z,69.00
2018-11-20T13:03:53.025Z,68.90
2018-11-20T13:06:37.551Z,69.10
2018-11-20T13:09:27.646Z,69.10
2018-11-20T13:12:18.641Z,69.20
2018-11-20T13:15:09.853Z,69.30
2018-11-20T13:17:54.702Z,69.30
2018-11-20T13:20:41.463Z,69.40
2018-11-20T13:23:29.404Z,69.50
2018-11-20T13:26:19.606Z,69.60
2018-11-20T13:29:10.963Z,69.70
2018-11-20T13:31:57.931Z,69.50
2018-11-20T13:34:44.925Z,69.50
2018-11-20T13:37:33.538Z,69.30
2018-11-20T13:40:18.537Z,69.30
2018-11-20T13:43:22.540Z,69.40
2018-11-20T13:46:19.999Z,69.50
2018-11-20T13:49:20.420Z,69.60
2018-11-20T13:52:06.589Z,69.70
2018-11-20T13:54:53.470Z,69.70
2018-11-20T13:57:46.301Z,69.80
2018-11-20T14:00:33.295Z,69.80
2018-11-20T14:03:20.329Z,70.00
2018-11-20T14:06:18.540Z,70.10
2018-11-20T14:09:03.612Z,70.20
2018-11-20T14:11:39.360Z,70.20
2018-11-20T14:14:27.732Z,70.20
2018-11-20T14:17:14.626Z,70.20
2018-11-20T14:19:54.251Z,70.20
2018-11-20T14:22:51.448Z,70.90
2018-11-20T14:25:44.313Z,70.20
2018-11-20T14:28:44.538Z,70.20
2018-11-20T14:32:13.538Z,70.20
2018-11-20T14:35:04.009Z,70.30
2018-11-20T14:38:00.748Z,70.50
2018-11-20T14:40:57.450Z,70.60
2018-11-20T14:43:43.708Z,70.60
2018-11-20T14:46:29.793Z,70.70
2018-11-20T14:49:16.040Z,70.90
2018-11-20T14:52:02.000Z,71.00
2018-11-20T14:54:48.848Z,71.10
2018-11-20T14:57:42.185Z,71.20
2018-11-20T15:00:37.198Z,71.30
2018-11-20T15:03:42.747Z,71.50
2018-11-20T15:06:45.257Z,71.70
2018-11-20T15:09:35.837Z,71.80
2018-11-20T15:12:21.919Z,72.00
2018-11-20T15:15:07.934Z,72.20
2018-11-20T15:17:53.893Z,72.40
2018-11-20T15:20:39.832Z,72.50
2018-11-20T15:23:22.806Z,72.60
2018-11-20T15:26:10.464Z,72.90
2018-11-20T15:28:56.746Z,73.10
2018-11-20T15:31:42.644Z,73.40
2018-11-20T15:34:39.155Z,73.70
2018-11-20T15:37:35.673Z,74.00
2018-11-20T15:40:30.056Z,74.30
2018-11-20T15:43:17.637Z,74.50
2018-11-20T15:46:03.984Z,74.60
2018-11-20T15:48:50.901Z,74.80
2018-11-20T15:51:28.345Z,75.10
2018-11-20T15:54:34.090Z,75.40
2018-11-20T15:57:33.670Z,75.60
2018-11-20T16:00:19.706Z,75.90
2018-11-20T16:03:25.698Z,76.20
2018-11-20T16:06:11.767Z,76.50
2018-11-20T16:09:05.070Z,76.80
2018-11-20T16:11:58.331Z,77.00
2018-11-20T16:14:46.051Z,77.10
2018-11-20T16:17:33.700Z,77.20
2018-11-20T16:20:36.514Z,77.30
2018-11-20T16:23:22.832Z,77.40
2018-11-20T16:26:16.143Z,77.50
2018-11-20T16:29:06.761Z,77.60
2018-11-20T16:32:06.336Z,77.80
2018-11-20T16:35:02.648Z,78.00
2018-11-20T16:37:55.981Z,78.20
2018-11-20T16:40:46.458Z,78.30
2018-11-20T16:43:49.011Z,78.50
2018-11-20T16:46:45.614Z,78.50
2018-11-20T16:49:29.467Z,78.40
2018-11-20T16:52:15.662Z,78.40
2018-11-20T16:55:05.916Z,78.40
2018-11-20T16:57:56.208Z,78.40
2018-11-20T17:00:45.322Z,78.40
2018-11-20T17:03:40.612Z,78.40
2018-11-20T17:06:27.584Z,78.60
2018-11-20T17:09:14.992Z,78.80
2018-11-20T17:12:08.287Z,78.90
2018-11-20T17:14:55.934Z,78.90
2018-11-20T17:17:52.228Z,78.90
2018-11-20T17:20:38.137Z,78.90
2018-11-20T17:23:31.791Z,78.80
2018-11-20T17:26:17.974Z,78.90
2018-11-20T17:29:04.297Z,78.90
2018-11-20T17:31:50.278Z,79.00
2018-11-20T17:34:36.198Z,79.00
2018-11-20T17:37:12.347Z,79.10
2018-11-20T17:39:58.153Z,79.20
2018-11-20T17:42:44.263Z,79.20
2018-11-20T17:45:34.019Z,79.20
2018-11-20T17:48:21.568Z,79.20
2018-11-20T17:51:21.309Z,79.30
2018-11-20T17:54:11.853Z,79.30
2018-11-20T17:56:57.849Z,79.50
2018-11-20T17:59:54.294Z,79.70
2018-11-20T18:02:40.295Z,79.80
2018-11-20T18:05:33.868Z,79.80
2018-11-20T18:08:19.727Z,80.50
2018-11-20T18:11:09.959Z,79.80
2018-11-20T18:14:01.798Z,79.90
2018-11-20T18:17:07.360Z,79.80
2018-11-20T18:20:01.019Z,79.90
2018-11-20T18:22:54.374Z,79.90
2018-11-20T18:25:50.623Z,79.90
2018-11-20T18:28:36.624Z,80.00
2018-11-20T18:31:15.656Z,80.10
2018-11-20T18:34:15.493Z,80.20
2018-11-20T18:37:09.109Z,80.20
2018-11-20T18:39:56.701Z,80.30
2018-11-20T18:42:40.876Z,80.20
2018-11-20T18:45:27.184Z,80.20
2018-11-20T18:48:13.416Z,80.20
2018-11-20T18:51:15.996Z,80.20
2018-11-20T18:54:02.418Z,80.30
2018-11-20T18:56:50.181Z,80.30
2018-11-20T18:59:36.236Z,80.40
2018-11-20T19:02:24.709Z,81.30
2018-11-20T19:05:11.709Z,81.60
2018-11-20T19:08:14.135Z,81.00
2018-11-20T19:11:00.651Z,81.10
2018-11-20T19:13:56.004Z,81.10
2018-11-20T19:16:42.006Z,81.00
2018-11-20T19:19:20.133Z,81.10
2018-11-20T19:22:06.624Z,81.10
2018-11-20T19:24:57.060Z,81.30
2018-11-20T19:27:57.438Z,81.50
2018-11-20T19:30:43.565Z,81.60
2018-11-20T19:33:34.023Z,81.70
2018-11-20T19:36:30.642Z,81.70
2018-11-20T19:39:16.611Z,81.90
2018-11-20T19:42:15.383Z,82.00
2018-11-20T19:45:18.275Z,82.00
2018-11-20T19:48:12.731Z,82.10
2018-11-20T19:51:00.805Z,82.30
2018-11-20T19:53:57.462Z,82.30
2018-11-20T19:56:43.648Z,82.40
2018-11-20T19:59:40.127Z,82.30
2018-11-20T20:02:36.582Z,82.30
2018-11-20T20:05:22.243Z,82.40
2018-11-20T20:08:12.516Z,82.50
2018-11-20T20:10:54.565Z,82.50
2018-11-20T20:13:48.123Z,82.60
2018-11-20T20:16:41.468Z,82.70
2018-11-20T20:19:27.737Z,82.90
2018-11-20T20:22:18.207Z,83.00
2018-11-20T20:25:04.061Z,83.00
2018-11-20T20:28:06.398Z,82.90
2018-11-20T20:30:54.090Z,83.10
2018-11-20T20:33:33.882Z,83.10
2018-11-20T20:36:29.884Z,83.30
2018-11-20T20:39:17.633Z,83.50
2018-11-20T20:42:14.141Z,83.60
2018-11-20T20:45:00.422Z,83.60
2018-11-20T20:47:55.760Z,83.60
2018-11-20T20:50:38.054Z,83.60
2018-11-20T20:53:23.752Z,83.50
2018-11-20T20:56:09.654Z,83.50
2018-11-20T20:58:55.611Z,83.60
2018-11-20T21:01:51.875Z,83.60
2018-11-20T21:04:27.205Z,83.70
2018-11-20T21:07:11.810Z,83.80
2018-11-20T21:10:14.476Z,83.90
2018-11-20T21:12:57.251Z,84.10
2018-11-20T21:15:47.721Z,84.30
2018-11-20T21:18:44.264Z,84.40
2018-11-20T21:21:34.620Z,84.40
2018-11-20T21:24:27.705Z,84.30
2018-11-20T21:27:08.189Z,84.30
2018-11-20T21:30:04.856Z,84.40
2018-11-20T21:32:51.069Z,84.50
2018-11-20T21:35:50.518Z,84.30
2018-11-20T21:38:46.788Z,84.30
2018-11-20T21:41:35.789Z,84.30
2018-11-20T21:44:21.706Z,84.40
2018-11-20T21:47:02.022Z,84.50
2018-11-20T21:49:55.515Z,84.60
2018-11-20T21:52:43.204Z,84.60
2018-11-20T21:55:36.585Z,84.50
2018-11-20T21:58:22.981Z,84.50
2018-11-20T22:01:11.440Z,84.50
2018-11-20T22:03:59.439Z,84.40
2018-11-20T22:06:45.361Z,84.30
2018-11-20T22:09:32.965Z,84.10
2018-11-20T22:12:26.517Z,84.10
2018-11-20T22:15:12.260Z,84.30
2018-11-20T22:18:03.638Z,84.40
2018-11-20T22:20:49.848Z,84.40
2018-11-20T22:23:43.518Z,85.00
2018-11-20T22:26:35.693Z,84.40
2018-11-20T22:29:16.896Z,84.40
2018-11-20T22:32:02.786Z,84.50
2018-11-20T22:34:49.300Z,84.70
2018-11-20T22:37:39.822Z,84.90
2018-11-20T22:40:30.650Z,85.10
2018-11-20T22:43:14.585Z,85.20
2018-11-20T22:46:03.038Z,85.30
2018-11-20T22:48:49.655Z,85.60
2018-11-20T22:51:37.195Z,85.70
2018-11-20T22:54:16.393Z,85.70
2018-11-20T22:56:54.212Z,85.60
2018-11-20T22:59:30.129Z,85.70
2018-11-20T23:02:22.163Z,85.60
2018-11-20T23:05:26.469Z,85.70
2018-11-20T23:07:56.302Z,85.80
2018-11-20T23:10:26.038Z,85.80
2018-11-20T23:12:54.692Z,85.80
2018-11-20T23:15:23.385Z,85.80
2018-11-20T23:17:51.842Z,85.90
2018-11-20T23:20:20.318Z,85.90
2018-11-20T23:22:49.325Z,85.90
2018-11-20T23:25:17.808Z,85.90
2018-11-20T23:27:46.368Z,85.90
2018-11-20T23:30:16.477Z,86.00
2018-11-20T23:32:44.959Z,86.10
2018-11-20T23:35:14.009Z,86.10
2018-11-20T23:37:43.149Z,86.10
2018-11-20T23:40:12.907Z,86.20
2018-11-20T23:42:41.769Z,86.20
2018-11-20T23:45:12.885Z,86.30
2018-11-20T23:47:41.553Z,86.30
2018-11-20T23:50:12.036Z,86.40
2018-11-20T23:52:40.667Z,86.40
2018-11-20T23:55:14.909Z,86.40
2018-11-20T23:57:43.370Z,86.40
